createdAt,value
2019-03-15T00:00:28.671Z,986.88
2019-03-15T00:01:28.691Z,986.9
2019-03-15T00:02:28.710Z,986.87
2019-03-15T00:03:28.724Z,986.91
2019-03-15T00:04:28.741Z,986.88
2019-03-15T00:05:28.759Z,986.91
2019-03-15T00:06:28.775Z,986.92
2019-03-15T00:07:28.795Z,986.95
2019-03-15T00:08:28.812Z,986.96
2019-03-15T00:09:28.830Z,987.03
2019-03-15T00:10:28.848Z,987.1
2019-03-15T00:11:29.325Z,987.13
2019-03-15T00:12:28.886Z,987.17
2019-03-15T00:13:28.901Z,987.16
2019-03-15T00:14:28.929Z,987.17
2019-03-15T00:15:28.937Z,987.27
2019-03-15T00:16:28.955Z,987.19
2019-03-15T00:17:28.972Z,987.25
2019-03-15T00:18:28.991Z,987.22
2019-03-15T00:19:29.009Z,987.19
2019-03-15T00:20:29.026Z,987.23
2019-03-15T00:21:29.044Z,987.14
2019-03-15T00:22:29.063Z,987.15
2019-03-15T00:23:29.078Z,987.21
2019-03-15T00:24:29.096Z,987.2
2019-03-15T00:25:29.114Z,987.2
2019-03-15T00:26:29.132Z,987.26
2019-03-15T00:27:29.150Z,987.16
2019-03-15T00:28:29.167Z,987.19
2019-03-15T00:29:29.186Z,987.21
2019-03-15T00:30:29.202Z,987.21
2019-03-15T00:31:29.221Z,987.24
2019-03-15T00:32:29.239Z,987.25
2019-03-15T00:33:29.256Z,987.27
2019-03-15T00:34:29.274Z,987.29
2019-03-15T00:35:29.294Z,987.31
2019-03-15T00:36:29.311Z,987.23
2019-03-15T00:37:29.328Z,987.25
2019-03-15T00:38:29.344Z,987.31
2019-03-15T00:39:29.362Z,987.35
2019-03-15T00:40:29.380Z,987.28
2019-03-15T00:41:29.397Z,987.26
2019-03-15T00:42:29.415Z,987.24
2019-03-15T00:43:29.432Z,987.26
2019-03-15T00:44:29.451Z,987.18
2019-03-15T00:45:29.468Z,987.22
2019-03-15T00:46:29.486Z,987.18
2019-03-15T00:47:29.503Z,987.21
2019-03-15T00:48:29.525Z,987.25
2019-03-15T00:49:29.539Z,987.29
2019-03-15T00:50:29.556Z,987.27
2019-03-15T00:51:29.576Z,987.23
2019-03-15T00:52:29.591Z,987.27
2019-03-15T00:53:29.610Z,987.25
2019-03-15T00:54:29.626Z,987.26
2019-03-15T00:55:29.645Z,987.26
2019-03-15T00:56:29.662Z,987.29
2019-03-15T00:57:29.681Z,987.26
2019-03-15T00:58:29.698Z,987.31
2019-03-15T00:59:29.719Z,987.33
2019-03-15T01:00:29.733Z,987.3
2019-03-15T01:01:29.750Z,987.31
2019-03-15T01:02:29.768Z,987.29
2019-03-15T01:03:29.787Z,987.29
2019-03-15T01:04:29.803Z,987.25
2019-03-15T01:05:29.821Z,987.2
2019-03-15T01:06:29.839Z,987.22
2019-03-15T01:07:29.856Z,987.26
2019-03-15T01:08:29.874Z,987.29
2019-03-15T01:09:29.891Z,987.32
2019-03-15T01:10:29.909Z,987.31
2019-03-15T01:11:29.926Z,987.32
2019-03-15T01:12:29.944Z,987.32
2019-03-15T01:13:29.962Z,987.32
2019-03-15T01:14:29.981Z,987.31
2019-03-15T01:15:29.999Z,987.29
2019-03-15T01:16:30.015Z,987.34
2019-03-15T01:17:30.035Z,987.34
2019-03-15T01:18:30.063Z,987.37
2019-03-15T01:19:30.067Z,987.39
2019-03-15T01:20:30.087Z,987.33
2019-03-15T01:21:30.117Z,987.32
2019-03-15T01:22:30.136Z,987.37
2019-03-15T01:23:30.141Z,987.31
2019-03-15T01:24:30.159Z,987.33
2019-03-15T01:25:30.175Z,987.35
2019-03-15T01:26:30.193Z,987.35
2019-03-15T01:27:30.293Z,987.33
2019-03-15T01:28:30.231Z,987.33
2019-03-15T01:29:30.246Z,987.35
2019-03-15T01:30:30.266Z,987.33
2019-03-15T01:31:30.283Z,987.33
2019-03-15T01:32:30.298Z,987.33
2019-03-15T01:33:30.316Z,987.35
2019-03-15T01:34:30.335Z,987.37
2019-03-15T01:35:33.274Z,987.37
2019-03-15T01:36:30.372Z,987.37
2019-03-15T01:37:30.388Z,987.34
2019-03-15T01:38:30.406Z,987.37
2019-03-15T01:39:30.425Z,987.33
2019-03-15T01:40:30.441Z,987.33
2019-03-15T01:41:30.459Z,987.35
2019-03-15T01:42:30.481Z,987.37
2019-03-15T01:43:30.494Z,987.38
2019-03-15T01:44:30.511Z,987.32
2019-03-15T01:45:30.530Z,987.28
2019-03-15T01:46:30.548Z,987.3
2019-03-15T01:47:30.565Z,987.34
2019-03-15T01:48:30.583Z,987.33
2019-03-15T01:49:30.601Z,987.35
2019-03-15T01:50:30.619Z,987.35
2019-03-15T01:51:30.634Z,987.33
2019-03-15T01:52:30.653Z,987.33
2019-03-15T01:53:30.671Z,987.34
2019-03-15T01:54:30.688Z,987.38
2019-03-15T01:55:30.706Z,987.39
2019-03-15T01:56:30.723Z,987.37
2019-03-15T01:57:30.741Z,987.39
2019-03-15T01:58:30.759Z,987.42
2019-03-15T01:59:30.781Z,987.41
2019-03-15T02:00:30.795Z,987.45
2019-03-15T02:01:31.027Z,987.49
2019-03-15T02:02:30.829Z,987.45
2019-03-15T02:03:30.847Z,987.41
2019-03-15T02:04:31.761Z,987.46
2019-03-15T02:05:30.883Z,987.4
2019-03-15T02:06:30.901Z,987.35
2019-03-15T02:07:30.919Z,987.36
2019-03-15T02:08:30.940Z,987.35
2019-03-15T02:09:30.953Z,987.32
2019-03-15T02:10:30.973Z,987.34
2019-03-15T02:11:30.988Z,987.37
2019-03-15T02:12:31.009Z,987.38
2019-03-15T02:13:31.023Z,987.35
2019-03-15T02:14:31.042Z,987.35
2019-03-15T02:15:31.059Z,987.35
2019-03-15T02:16:31.076Z,987.34
2019-03-15T02:17:31.096Z,987.37
2019-03-15T02:18:31.115Z,987.36
2019-03-15T02:19:31.130Z,987.33
2019-03-15T02:20:31.146Z,987.35
2019-03-15T02:21:31.166Z,987.34
2019-03-15T02:22:31.182Z,987.34
2019-03-15T02:23:31.201Z,987.29
2019-03-15T02:24:31.218Z,987.39
2019-03-15T02:25:31.235Z,987.4
2019-03-15T02:26:31.258Z,987.37
2019-03-15T02:27:31.270Z,987.37
2019-03-15T02:28:31.289Z,987.39
2019-03-15T02:29:31.307Z,987.37
2019-03-15T02:30:31.325Z,987.4
2019-03-15T02:31:31.347Z,987.38
2019-03-15T02:32:31.358Z,987.4
2019-03-15T02:33:32.191Z,987.45
2019-03-15T02:34:31.394Z,987.45
2019-03-15T02:35:31.410Z,987.52
2019-03-15T02:36:31.434Z,987.47
2019-03-15T02:37:31.447Z,987.43
2019-03-15T02:38:31.468Z,987.4
2019-03-15T02:39:31.485Z,987.4
2019-03-15T02:40:31.500Z,987.41
2019-03-15T02:41:32.032Z,987.44
2019-03-15T02:42:31.546Z,987.43
2019-03-15T02:43:31.554Z,987.38
2019-03-15T02:44:31.592Z,987.36
2019-03-15T02:45:33.004Z,987.37
2019-03-15T02:46:31.604Z,987.32
2019-03-15T02:47:31.625Z,987.28
2019-03-15T02:48:31.641Z,987.36
2019-03-15T02:49:31.658Z,987.37
2019-03-15T02:50:31.676Z,987.31
2019-03-15T02:51:31.693Z,987.34
2019-03-15T02:52:31.710Z,987.39
2019-03-15T02:53:31.735Z,987.3
2019-03-15T02:54:31.748Z,987.32
2019-03-15T02:55:31.763Z,987.3
2019-03-15T02:56:31.781Z,987.33
2019-03-15T02:57:31.799Z,987.36
2019-03-15T02:58:31.819Z,987.34
2019-03-15T02:59:31.837Z,987.35
2019-03-15T03:00:31.854Z,987.39
2019-03-15T03:01:31.870Z,987.43
2019-03-15T03:02:31.892Z,987.4
2019-03-15T03:03:31.912Z,987.41
2019-03-15T03:04:31.922Z,987.39
2019-03-15T03:05:31.940Z,987.39
2019-03-15T03:06:31.959Z,987.35
2019-03-15T03:07:32.007Z,987.41
2019-03-15T03:08:31.993Z,987.47
2019-03-15T03:09:32.241Z,987.37
2019-03-15T03:10:32.039Z,987.41
2019-03-15T03:11:32.063Z,987.37
2019-03-15T03:12:32.085Z,987.35
2019-03-15T03:13:32.084Z,987.42
2019-03-15T03:14:32.099Z,987.4
2019-03-15T03:15:32.116Z,987.39
2019-03-15T03:16:32.135Z,987.41
2019-03-15T03:17:32.161Z,987.39
2019-03-15T03:18:32.179Z,987.39
2019-03-15T03:19:32.186Z,987.39
2019-03-15T03:20:32.205Z,987.34
2019-03-15T03:21:32.229Z,987.42
2019-03-15T03:22:32.240Z,987.44
2019-03-15T03:23:32.257Z,987.41
2019-03-15T03:24:32.276Z,987.43
2019-03-15T03:25:32.293Z,987.42
2019-03-15T03:26:32.311Z,987.42
2019-03-15T03:27:33.529Z,987.52
2019-03-15T03:28:32.350Z,987.52
2019-03-15T03:29:32.375Z,987.46
2019-03-15T03:30:32.383Z,987.52
2019-03-15T03:31:32.400Z,987.47
2019-03-15T03:32:32.419Z,987.57
2019-03-15T03:33:32.433Z,987.54
2019-03-15T03:34:32.456Z,987.52
2019-03-15T03:35:32.472Z,987.56
2019-03-15T03:36:32.487Z,987.54
2019-03-15T03:37:32.504Z,987.51
2019-03-15T03:38:32.521Z,987.49
2019-03-15T03:39:32.599Z,987.46
2019-03-15T03:40:32.557Z,987.5
2019-03-15T03:41:32.576Z,987.53
2019-03-15T03:42:32.593Z,987.51
2019-03-15T03:43:32.610Z,987.5
2019-03-15T03:44:32.628Z,987.47
2019-03-15T03:45:32.645Z,987.4
2019-03-15T03:46:32.662Z,987.43
2019-03-15T03:47:32.970Z,987.43
2019-03-15T03:48:32.697Z,987.39
2019-03-15T03:49:32.715Z,987.39
2019-03-15T03:50:32.734Z,987.39
2019-03-15T03:51:32.750Z,987.36
2019-03-15T03:52:32.768Z,987.37
2019-03-15T03:53:32.787Z,987.37
2019-03-15T03:54:32.803Z,987.39
2019-03-15T03:55:32.821Z,987.4
2019-03-15T03:56:32.838Z,987.44
2019-03-15T03:57:32.957Z,987.4
2019-03-15T03:58:32.874Z,987.4
2019-03-15T03:59:32.891Z,987.38
2019-03-15T04:00:32.908Z,987.39
2019-03-15T04:01:32.927Z,987.37
2019-03-15T04:02:33.183Z,987.34
2019-03-15T04:03:32.962Z,987.41
2019-03-15T04:04:32.980Z,987.37
2019-03-15T04:05:32.997Z,987.41
2019-03-15T04:06:33.013Z,987.44
2019-03-15T04:07:33.031Z,987.43
2019-03-15T04:08:33.050Z,987.37
2019-03-15T04:09:33.067Z,987.38
2019-03-15T04:10:33.085Z,987.32
2019-03-15T04:11:33.102Z,987.3
2019-03-15T04:12:33.121Z,987.34
2019-03-15T04:13:33.137Z,987.39
2019-03-15T04:14:33.155Z,987.42
2019-03-15T04:15:33.171Z,987.45
2019-03-15T04:16:33.189Z,987.5
2019-03-15T04:17:33.207Z,987.5
2019-03-15T04:18:33.225Z,987.49
2019-03-15T04:19:33.241Z,987.45
2019-03-15T04:20:33.260Z,987.42
2019-03-15T04:21:33.276Z,987.46
2019-03-15T04:22:33.295Z,987.43
2019-03-15T04:23:33.312Z,987.35
2019-03-15T04:24:33.330Z,987.42
2019-03-15T04:25:33.349Z,987.41
2019-03-15T04:26:33.365Z,987.4
2019-03-15T04:27:33.383Z,987.35
2019-03-15T04:28:33.400Z,987.38
2019-03-15T04:29:33.418Z,987.36
2019-03-15T04:30:33.437Z,987.35
2019-03-15T04:31:33.456Z,987.36
2019-03-15T04:32:34.260Z,987.31
2019-03-15T04:33:33.491Z,987.35
2019-03-15T04:34:33.509Z,987.28
2019-03-15T04:35:33.524Z,987.32
2019-03-15T04:36:33.543Z,987.26
2019-03-15T04:37:33.560Z,987.26
2019-03-15T04:38:33.589Z,987.18
2019-03-15T04:39:33.596Z,987.21
2019-03-15T04:40:33.614Z,987.15
2019-03-15T04:41:33.633Z,987.17
2019-03-15T04:42:33.648Z,987.15
2019-03-15T04:43:33.666Z,987.17
2019-03-15T04:44:33.684Z,987.15
2019-03-15T04:45:33.702Z,987.2
2019-03-15T04:46:33.719Z,987.19
2019-03-15T04:47:33.738Z,987.19
2019-03-15T04:48:33.755Z,987.2
2019-03-15T04:49:33.773Z,987.2
2019-03-15T04:50:33.791Z,987.24
2019-03-15T04:51:33.808Z,987.26
2019-03-15T04:52:33.826Z,987.38
2019-03-15T04:53:33.843Z,987.39
2019-03-15T04:54:33.862Z,987.42
2019-03-15T04:55:33.879Z,987.4
2019-03-15T04:56:33.897Z,987.41
2019-03-15T04:57:33.913Z,987.44
2019-03-15T04:58:33.932Z,987.44
2019-03-15T04:59:33.949Z,987.45
2019-03-15T05:00:33.967Z,987.45
2019-03-15T05:01:33.984Z,987.45
2019-03-15T05:02:34.000Z,987.5
2019-03-15T05:03:34.019Z,987.51
2019-03-15T05:04:34.038Z,987.51
2019-03-15T05:05:34.222Z,987.53
2019-03-15T05:06:34.073Z,987.49
2019-03-15T05:07:34.088Z,987.46
2019-03-15T05:08:34.108Z,987.49
2019-03-15T05:09:34.126Z,987.49
2019-03-15T05:10:34.142Z,987.42
2019-03-15T05:11:34.160Z,987.43
2019-03-15T05:12:34.175Z,987.5
2019-03-15T05:13:34.196Z,987.44
2019-03-15T05:14:34.211Z,987.43
2019-03-15T05:15:34.229Z,987.43
2019-03-15T05:16:34.247Z,987.44
2019-03-15T05:17:34.265Z,987.47
2019-03-15T05:18:34.283Z,987.47
2019-03-15T05:19:34.299Z,987.46
2019-03-15T05:20:34.321Z,987.48
2019-03-15T05:21:34.333Z,987.43
2019-03-15T05:22:34.358Z,987.45
2019-03-15T05:23:34.398Z,987.43
2019-03-15T05:24:34.387Z,987.4
2019-03-15T05:25:34.404Z,987.38
2019-03-15T05:26:34.422Z,987.42
2019-03-15T05:27:34.440Z,987.39
2019-03-15T05:28:34.461Z,987.37
2019-03-15T05:29:34.476Z,987.37
2019-03-15T05:30:34.494Z,987.4
2019-03-15T05:31:34.512Z,987.37
2019-03-15T05:32:34.529Z,987.39
2019-03-15T05:33:34.548Z,987.31
2019-03-15T05:34:34.564Z,987.32
2019-03-15T05:35:34.581Z,987.25
2019-03-15T05:36:34.599Z,987.28
2019-03-15T05:37:34.614Z,987.29
2019-03-15T05:38:35.134Z,987.24
2019-03-15T05:39:34.651Z,987.23
2019-03-15T05:40:34.671Z,987.2
2019-03-15T05:41:34.686Z,987.21
2019-03-15T05:42:34.703Z,987.25
2019-03-15T05:43:34.722Z,987.24
2019-03-15T05:44:34.739Z,987.22
2019-03-15T05:45:34.756Z,987.22
2019-03-15T05:46:34.774Z,987.24
2019-03-15T05:47:34.792Z,987.2
2019-03-15T05:48:34.810Z,987.17
2019-03-15T05:49:34.827Z,987.2
2019-03-15T05:50:34.845Z,987.26
2019-03-15T05:51:34.867Z,987.22
2019-03-15T05:52:34.880Z,987.25
2019-03-15T05:53:34.903Z,987.22
2019-03-15T05:54:34.919Z,987.22
2019-03-15T05:55:34.934Z,987.19
2019-03-15T05:56:34.949Z,987.19
2019-03-15T05:57:34.969Z,987.09
2019-03-15T05:58:34.987Z,987.1
2019-03-15T05:59:35.007Z,987.09
2019-03-15T06:00:35.023Z,987.08
2019-03-15T06:01:35.040Z,987.06
2019-03-15T06:02:35.058Z,987.06
2019-03-15T06:03:47.741Z,987.03
2019-03-15T06:04:35.093Z,987
2019-03-15T06:05:35.110Z,986.97
2019-03-15T06:06:35.128Z,987
2019-03-15T06:07:35.146Z,986.98
2019-03-15T06:08:35.164Z,986.99
2019-03-15T06:09:35.181Z,986.95
2019-03-15T06:10:35.198Z,986.96
2019-03-15T06:11:35.217Z,986.85
2019-03-15T06:12:35.237Z,986.87
2019-03-15T06:13:35.253Z,986.87
2019-03-15T06:14:35.277Z,986.88
2019-03-15T06:15:35.288Z,986.85
2019-03-15T06:16:35.304Z,986.87
2019-03-15T06:17:35.322Z,986.86
2019-03-15T06:18:35.391Z,986.83
2019-03-15T06:19:35.358Z,986.92
2019-03-15T06:20:35.375Z,986.95
2019-03-15T06:21:35.393Z,987
2019-03-15T06:22:35.411Z,987.01
2019-03-15T06:23:35.432Z,987.05
2019-03-15T06:24:35.446Z,987.07
2019-03-15T06:25:35.466Z,987.13
2019-03-15T06:26:35.482Z,987.11
2019-03-15T06:27:35.501Z,987.15
2019-03-15T06:28:35.519Z,987.12
2019-03-15T06:29:35.537Z,987.14
2019-03-15T06:30:35.557Z,987.08
2019-03-15T06:31:35.570Z,987.06
2019-03-15T06:32:35.587Z,987.09
2019-03-15T06:33:35.604Z,987.06
2019-03-15T06:34:35.623Z,987.08
2019-03-15T06:35:35.640Z,986.99
2019-03-15T06:36:35.657Z,986.98
2019-03-15T06:37:35.675Z,986.98
2019-03-15T06:38:35.711Z,986.98
2019-03-15T06:39:36.259Z,986.95
2019-03-15T06:40:35.730Z,986.87
2019-03-15T06:41:35.747Z,986.84
2019-03-15T06:42:35.764Z,986.8
2019-03-15T06:43:35.780Z,986.81
2019-03-15T06:44:37.460Z,986.89
2019-03-15T06:45:35.819Z,986.84
2019-03-15T06:46:35.836Z,986.86
2019-03-15T06:47:35.854Z,986.8
2019-03-15T06:48:35.874Z,986.85
2019-03-15T06:49:35.889Z,986.83
2019-03-15T06:50:35.907Z,986.78
2019-03-15T06:51:35.922Z,986.85
2019-03-15T06:52:35.944Z,986.79
2019-03-15T06:53:35.958Z,986.79
2019-03-15T06:54:35.975Z,986.75
2019-03-15T06:55:35.993Z,986.78
2019-03-15T06:56:36.011Z,986.81
2019-03-15T06:57:36.029Z,986.8
2019-03-15T06:58:36.046Z,986.78
2019-03-15T06:59:36.123Z,986.79
2019-03-15T07:00:36.083Z,986.78
2019-03-15T07:01:36.099Z,986.74
2019-03-15T07:02:36.117Z,986.77
2019-03-15T07:03:36.136Z,986.74
2019-03-15T07:04:36.152Z,986.72
2019-03-15T07:05:36.170Z,986.69
2019-03-15T07:06:36.187Z,986.69
2019-03-15T07:07:36.206Z,986.59
2019-03-15T07:08:36.223Z,986.58
2019-03-15T07:09:36.240Z,986.58
2019-03-15T07:10:36.259Z,986.56
2019-03-15T07:11:36.277Z,986.52
2019-03-15T07:12:36.293Z,986.46
2019-03-15T07:13:36.314Z,986.45
2019-03-15T07:14:36.331Z,986.48
2019-03-15T07:15:36.621Z,986.44
2019-03-15T07:16:38.131Z,986.5
2019-03-15T07:17:36.383Z,986.49
2019-03-15T07:18:36.400Z,986.48
2019-03-15T07:19:36.419Z,986.49
2019-03-15T07:20:36.435Z,986.49
2019-03-15T07:21:36.884Z,986.5
2019-03-15T07:22:36.471Z,986.46
2019-03-15T07:23:36.489Z,986.48
2019-03-15T07:24:36.507Z,986.48
2019-03-15T07:25:36.526Z,986.47
2019-03-15T07:26:36.543Z,986.46
2019-03-15T07:27:36.560Z,986.39
2019-03-15T07:28:36.579Z,986.4
2019-03-15T07:29:36.598Z,986.4
2019-03-15T07:30:36.616Z,986.39
2019-03-15T07:31:36.633Z,986.43
2019-03-15T07:32:36.650Z,986.39
2019-03-15T07:33:36.666Z,986.41
2019-03-15T07:34:36.684Z,986.37
2019-03-15T07:35:36.702Z,986.41
2019-03-15T07:36:37.312Z,986.37
2019-03-15T07:37:36.740Z,986.36
2019-03-15T07:38:36.758Z,986.37
2019-03-15T07:39:36.775Z,986.36
2019-03-15T07:40:36.791Z,986.37
2019-03-15T07:41:36.809Z,986.37
2019-03-15T07:42:36.826Z,986.33
2019-03-15T07:43:36.844Z,986.32
2019-03-15T07:44:36.863Z,986.31
2019-03-15T07:45:36.952Z,986.28
2019-03-15T07:46:36.898Z,986.32
2019-03-15T07:47:36.916Z,986.26
2019-03-15T07:48:36.935Z,986.29
2019-03-15T07:49:36.952Z,986.29
2019-03-15T07:50:36.968Z,986.35
2019-03-15T07:51:36.988Z,986.34
2019-03-15T07:52:37.004Z,986.35
2019-03-15T07:53:37.023Z,986.34
2019-03-15T07:54:38.130Z,986.34
2019-03-15T07:55:37.060Z,986.39
2019-03-15T07:56:37.076Z,986.37
2019-03-15T07:57:37.094Z,986.38
2019-03-15T07:58:37.112Z,986.35
2019-03-15T07:59:37.129Z,986.33
2019-03-15T08:00:37.155Z,986.31
2019-03-15T08:01:37.164Z,986.33
2019-03-15T08:02:37.199Z,986.37
2019-03-15T08:03:37.200Z,986.36
2019-03-15T08:04:37.218Z,986.37
2019-03-15T08:05:38.191Z,986.36
2019-03-15T08:06:37.255Z,986.32
2019-03-15T08:07:44.301Z,986.33
2019-03-15T08:08:37.321Z,986.27
2019-03-15T08:09:37.309Z,986.23
2019-03-15T08:10:37.327Z,986.18
2019-03-15T08:11:37.344Z,986.22
2019-03-15T08:12:38.660Z,986.19
2019-03-15T08:13:37.381Z,986.25
2019-03-15T08:14:37.396Z,986.24
2019-03-15T08:15:37.417Z,986.33
2019-03-15T08:16:37.436Z,986.28
2019-03-15T08:17:37.513Z,986.26
2019-03-15T08:18:37.468Z,986.27
2019-03-15T08:19:37.485Z,986.16
2019-03-15T08:20:37.504Z,986.19
2019-03-15T08:21:37.532Z,986.19
2019-03-15T08:22:37.539Z,986.21
2019-03-15T08:23:37.558Z,986.21
2019-03-15T08:24:50.534Z,986.26
2019-03-15T08:25:37.593Z,986.26
2019-03-15T08:26:37.671Z,986.25
2019-03-15T08:27:37.628Z,986.2
2019-03-15T08:28:37.646Z,986.23
2019-03-15T08:29:37.665Z,986.23
2019-03-15T08:30:37.684Z,986.25
2019-03-15T08:31:37.700Z,986.23
2019-03-15T08:32:37.722Z,986.25
2019-03-15T08:33:37.736Z,986.2
2019-03-15T08:34:37.755Z,986.23
2019-03-15T08:35:37.773Z,986.21
2019-03-15T08:36:37.789Z,986.24
2019-03-15T08:37:37.807Z,986.28
2019-03-15T08:38:47.053Z,986.23
2019-03-15T08:39:37.844Z,986.22
2019-03-15T08:40:37.863Z,986.24
2019-03-15T08:41:37.879Z,986.23
2019-03-15T08:42:37.898Z,986.19
2019-03-15T08:43:37.915Z,986.21
2019-03-15T08:44:37.934Z,986.19
2019-03-15T08:45:37.950Z,986.18
2019-03-15T08:46:37.968Z,986.17
2019-03-15T08:47:37.987Z,986.17
2019-03-15T08:48:38.004Z,986.18
2019-03-15T08:49:38.023Z,986.16
2019-03-15T08:50:38.043Z,986.2
2019-03-15T08:51:38.061Z,986.16
2019-03-15T08:52:38.074Z,986.18
2019-03-15T08:53:38.095Z,986.18
2019-03-15T08:54:38.113Z,986.15
2019-03-15T08:55:39.817Z,986.08
2019-03-15T08:56:38.149Z,986.07
2019-03-15T08:57:38.165Z,986.04
2019-03-15T08:58:38.183Z,986.02
2019-03-15T08:59:38.210Z,986.03
2019-03-15T09:00:38.222Z,986.02
2019-03-15T09:01:38.237Z,985.98
2019-03-15T09:02:38.254Z,985.97
2019-03-15T09:03:38.275Z,985.94
2019-03-15T09:04:38.292Z,985.9
2019-03-15T09:05:38.309Z,985.89
2019-03-15T09:06:40.901Z,985.85
2019-03-15T09:07:38.345Z,985.82
2019-03-15T09:08:38.368Z,985.78
2019-03-15T09:09:38.381Z,985.76
2019-03-15T09:10:38.400Z,985.71
2019-03-15T09:11:38.417Z,985.71
2019-03-15T09:12:38.435Z,985.67
2019-03-15T09:13:38.453Z,985.7
2019-03-15T09:14:38.472Z,985.68
2019-03-15T09:15:38.490Z,985.7
2019-03-15T09:16:38.508Z,985.67
2019-03-15T09:17:38.526Z,985.71
2019-03-15T09:18:38.547Z,985.68
2019-03-15T09:19:38.561Z,985.72
2019-03-15T09:20:38.579Z,985.7
2019-03-15T09:21:38.596Z,985.73
2019-03-15T09:22:38.615Z,985.71
2019-03-15T09:23:38.634Z,985.74
2019-03-15T09:24:38.651Z,985.71
2019-03-15T09:25:38.667Z,985.69
2019-03-15T09:26:38.688Z,985.71
2019-03-15T09:27:38.705Z,985.66
2019-03-15T09:28:38.724Z,985.72
2019-03-15T09:29:38.741Z,985.67
2019-03-15T09:30:38.760Z,985.72
2019-03-15T09:31:47.344Z,985.74
2019-03-15T09:32:38.794Z,985.64
2019-03-15T09:33:38.821Z,985.65
2019-03-15T09:34:38.876Z,985.66
2019-03-15T09:35:38.848Z,985.67
2019-03-15T09:36:49.261Z,985.69
2019-03-15T09:37:38.888Z,985.67
2019-03-15T09:38:38.903Z,985.69
2019-03-15T09:39:38.921Z,985.71
2019-03-15T09:40:38.939Z,985.71
2019-03-15T09:41:40.010Z,985.69
2019-03-15T09:42:38.976Z,985.73
2019-03-15T09:43:39.030Z,985.68
2019-03-15T09:44:39.025Z,985.57
2019-03-15T09:45:39.031Z,985.54
2019-03-15T09:46:39.047Z,985.47
2019-03-15T09:47:39.067Z,985.46
2019-03-15T09:48:39.084Z,985.41
2019-03-15T09:49:39.101Z,985.39
2019-03-15T09:50:50.410Z,985.32
2019-03-15T09:51:39.137Z,985.24
2019-03-15T09:52:39.155Z,985.17
2019-03-15T09:53:39.174Z,985.2
2019-03-15T09:54:39.191Z,985.16
2019-03-15T09:55:39.210Z,985.11
2019-03-15T09:56:39.229Z,985.03
2019-03-15T09:57:39.243Z,985.08
2019-03-15T09:58:39.275Z,985.01
2019-03-15T09:59:39.296Z,984.95
2019-03-15T10:00:39.299Z,984.95
2019-03-15T10:01:39.318Z,984.94
2019-03-15T10:02:39.337Z,984.97
2019-03-15T10:03:39.354Z,984.96
2019-03-15T10:04:39.372Z,984.97
2019-03-15T10:05:39.391Z,984.97
2019-03-15T10:06:39.410Z,984.91
2019-03-15T10:07:42.823Z,984.99
2019-03-15T10:08:39.444Z,984.96
2019-03-15T10:09:45.502Z,985
2019-03-15T10:10:39.481Z,984.97
2019-03-15T10:11:39.499Z,984.95
2019-03-15T10:12:39.517Z,984.97
2019-03-15T10:13:39.534Z,984.91
2019-03-15T10:14:39.555Z,984.92
2019-03-15T10:15:39.632Z,984.92
2019-03-15T10:16:39.588Z,984.86
2019-03-15T10:17:39.607Z,984.85
2019-03-15T10:18:39.624Z,984.83
2019-03-15T10:19:39.642Z,984.8
2019-03-15T10:20:39.660Z,984.82
2019-03-15T10:21:39.679Z,984.8
2019-03-15T10:22:39.696Z,984.79
2019-03-15T10:23:39.715Z,984.78
2019-03-15T10:24:39.736Z,984.74
2019-03-15T10:25:46.483Z,984.71
2019-03-15T10:26:39.769Z,984.77
2019-03-15T10:27:39.790Z,984.67
2019-03-15T10:28:39.805Z,984.7
2019-03-15T10:29:39.824Z,984.59
2019-03-15T10:30:39.841Z,984.63
2019-03-15T10:31:39.860Z,984.55
2019-03-15T10:32:39.878Z,984.57
2019-03-15T10:33:49.731Z,984.5
2019-03-15T10:34:39.914Z,984.5
2019-03-15T10:35:39.933Z,984.5
2019-03-15T10:36:39.956Z,984.49
2019-03-15T10:37:39.968Z,984.46
2019-03-15T10:38:39.987Z,984.41
2019-03-15T10:39:40.005Z,984.43
2019-03-15T10:40:40.023Z,984.46
2019-03-15T10:41:40.041Z,984.43
2019-03-15T10:42:40.058Z,984.51
2019-03-15T10:43:40.093Z,984.52
2019-03-15T10:44:40.094Z,984.61
2019-03-15T10:45:40.182Z,984.47
2019-03-15T10:46:40.552Z,984.46
2019-03-15T10:47:42.280Z,984.34
2019-03-15T10:48:40.167Z,984.41
2019-03-15T10:49:40.185Z,984.32
2019-03-15T10:50:40.202Z,984.22
2019-03-15T10:51:40.222Z,984.18
2019-03-15T10:52:40.239Z,984.26
2019-03-15T10:53:40.257Z,984.36
2019-03-15T10:54:40.277Z,984.48
2019-03-15T10:55:40.293Z,984.42
2019-03-15T10:56:40.316Z,984.37
2019-03-15T10:57:40.330Z,984.44
2019-03-15T10:58:40.350Z,984.43
2019-03-15T10:59:40.366Z,984.33
2019-03-15T11:00:40.384Z,984.34
2019-03-15T11:01:40.403Z,984.42
2019-03-15T11:02:40.434Z,984.44
2019-03-15T11:03:40.438Z,984.35
2019-03-15T11:04:40.456Z,984.43
2019-03-15T11:05:40.476Z,984.41
2019-03-15T11:06:40.492Z,984.37
2019-03-15T11:07:40.510Z,984.44
2019-03-15T11:08:40.540Z,984.41
2019-03-15T11:09:40.547Z,984.4
2019-03-15T11:10:40.570Z,984.4
2019-03-15T11:11:40.582Z,984.42
2019-03-15T11:12:40.618Z,984.38
2019-03-15T11:13:40.617Z,984.32
2019-03-15T11:14:40.636Z,984.3
2019-03-15T11:15:40.655Z,984.31
2019-03-15T11:16:40.673Z,984.26
2019-03-15T11:17:40.691Z,984.32
2019-03-15T11:18:40.709Z,984.32
2019-03-15T11:19:40.728Z,984.3
2019-03-15T11:20:40.746Z,984.29
2019-03-15T11:21:40.762Z,984.3
2019-03-15T11:22:40.787Z,984.33
2019-03-15T11:23:40.799Z,984.34
2019-03-15T11:24:43.551Z,984.3
2019-03-15T11:25:40.836Z,984.32
2019-03-15T11:26:40.853Z,984.29
2019-03-15T11:27:40.871Z,984.24
2019-03-15T11:28:40.889Z,984.27
2019-03-15T11:29:40.908Z,984.22
2019-03-15T11:30:40.927Z,984.23
2019-03-15T11:31:40.946Z,984.29
2019-03-15T11:32:40.964Z,984.19
2019-03-15T11:33:40.980Z,984.23
2019-03-15T11:34:40.999Z,984.21
2019-03-15T11:35:41.016Z,984.15
2019-03-15T11:36:41.034Z,984.22
2019-03-15T11:37:41.056Z,984.19
2019-03-15T11:38:41.072Z,984.21
2019-03-15T11:39:41.088Z,984.15
2019-03-15T11:40:41.107Z,984.23
2019-03-15T11:41:41.127Z,984.3
2019-03-15T11:42:41.144Z,984.22
2019-03-15T11:43:41.162Z,984.23
2019-03-15T11:44:41.180Z,984.27
2019-03-15T11:45:41.198Z,984.29
2019-03-15T11:46:41.243Z,984.3
2019-03-15T11:48:00.926Z,984.24
2019-03-15T11:48:41.252Z,984.27
2019-03-15T11:49:41.271Z,984.26
2019-03-15T11:50:41.289Z,984.22
2019-03-15T11:51:42.602Z,984.23
2019-03-15T11:52:41.326Z,984.3
2019-03-15T11:53:41.344Z,984.28
2019-03-15T11:54:41.362Z,984.34
2019-03-15T11:55:41.380Z,984.27
2019-03-15T11:56:41.398Z,984.27
2019-03-15T11:57:41.416Z,984.34
2019-03-15T11:58:41.435Z,984.3
2019-03-15T11:59:41.453Z,984.37
2019-03-15T12:00:41.470Z,984.48
2019-03-15T12:01:41.487Z,984.39
2019-03-15T12:02:41.506Z,984.41
2019-03-15T12:03:52.343Z,984.4
2019-03-15T12:04:41.542Z,984.4
2019-03-15T12:05:41.558Z,984.4
2019-03-15T12:06:41.579Z,984.49
2019-03-15T12:07:41.596Z,984.43
2019-03-15T12:08:41.614Z,984.46
2019-03-15T12:09:41.632Z,984.42
2019-03-15T12:10:41.652Z,984.42
2019-03-15T12:11:41.669Z,984.4
2019-03-15T12:12:41.686Z,984.39
2019-03-15T12:13:41.705Z,984.4
2019-03-15T12:14:41.725Z,984.47
2019-03-15T12:15:41.742Z,984.34
2019-03-15T12:16:41.762Z,984.32
2019-03-15T12:17:41.779Z,984.29
2019-03-15T12:18:41.798Z,984.35
2019-03-15T12:19:41.813Z,984.34
2019-03-15T12:20:41.832Z,984.33
2019-03-15T12:21:41.849Z,984.29
2019-03-15T12:22:41.869Z,984.33
2019-03-15T12:23:41.887Z,984.29
2019-03-15T12:24:41.906Z,984.37
2019-03-15T12:25:41.923Z,984.33
2019-03-15T12:26:41.942Z,984.35
2019-03-15T12:27:41.962Z,984.33
2019-03-15T12:28:41.980Z,984.39
2019-03-15T12:29:42.001Z,984.44
2019-03-15T12:30:43.146Z,984.37
2019-03-15T12:31:42.034Z,984.32